Time;durP1;ratioP1;P1;durP2;ratioP2;P2;SDS_P1;SDS_P2;PMS_P1;PMS_P2;Temp;Humidity;BMP_temperature;BMP_pressure;BME280_temperature;BME280_humidity;BME280_pressure;Samples;Min_cycle;Max_cycle;Signal;HPM_P1;HPM_P2
2022/07/17 00:00:20;;;;;;;6.65;1.40;;;;;;;;;;5093219;28;20081;-46
2022/07/17 00:02:50;;;;;;;3.65;1.42;;;;;;;;;;5094019;28;20405;-47
2022/07/17 00:05:16;;;;;;;5.65;1.75;;;;;;;;;;5092985;28;20492;-45
2022/07/17 00:07:42;;;;;;;4.75;1.85;;;;;;;;;;5091848;28;20115;-45
2022/07/17 00:10:09;;;;;;;4.53;1.95;;;;;;;;;;5093468;28;20070;-46
2022/07/17 00:12:35;;;;;;;3.03;1.00;;;;;;;;;;5091779;28;20035;-46
2022/07/17 00:15:01;;;;;;;5.43;1.52;;;;;;;;;;5092938;28;20073;-45
2022/07/17 00:17:27;;;;;;;3.65;1.58;;;;;;;;;;5093430;28;20103;-47
2022/07/17 00:19:53;;;;;;;2.00;0.98;;;;;;;;;;5093315;28;20379;-46
2022/07/17 00:22:20;;;;;;;4.50;1.15;;;;;;;;;;5093449;28;20048;-46
2022/07/17 00:24:46;;;;;;;4.35;1.13;;;;;;;;;;5093260;28;20107;-48
2022/07/17 00:27:12;;;;;;;1.58;1.08;;;;;;;;;;5093219;28;20108;-46
2022/07/17 00:29:38;;;;;;;13.52;2.25;;;;;;;;;;5093226;28;20016;-45
2022/07/17 00:32:05;;;;;;;2.47;1.58;;;;;;;;;;5092923;28;20032;-46
2022/07/17 00:34:31;;;;;;;3.83;1.17;;;;;;;;;;5092945;28;20028;-46
2022/07/17 00:36:57;;;;;;;12.18;1.60;;;;;;;;;;5092867;28;20031;-45
2022/07/17 00:39:23;;;;;;;4.50;1.08;;;;;;;;;;5093271;28;20031;-46
2022/07/17 00:41:50;;;;;;;7.68;1.88;;;;;;;;;;5091545;28;20039;-49
2022/07/17 00:44:16;;;;;;;4.00;1.25;;;;;;;;;;5093103;28;20023;-46
2022/07/17 00:46:42;;;;;;;4.20;1.15;;;;;;;;;;5092769;28;20442;-46
2022/07/17 00:49:09;;;;;;;5.15;1.17;;;;;;;;;;5091528;28;20116;-46
2022/07/17 00:51:35;;;;;;;11.68;1.50;;;;;;;;;;5094512;28;20050;-46
2022/07/17 00:54:03;;;;;;;2.85;1.00;;;;;;;;;;5096741;28;20051;-47
2022/07/17 00:56:29;;;;;;;11.13;1.40;;;;;;;;;;5096441;28;20111;-47
2022/07/17 00:58:56;;;;;;;5.55;1.23;;;;;;;;;;5096483;28;20032;-46
2022/07/17 01:01:22;;;;;;;5.78;1.65;;;;;;;;;;5096588;28;20427;-45
2022/07/17 01:03:48;;;;;;;3.28;1.05;;;;;;;;;;5094629;28;20433;-45
2022/07/17 01:06:14;;;;;;;2.30;1.25;;;;;;;;;;5096861;28;20032;-46
2022/07/17 01:08:40;;;;;;;3.15;1.10;;;;;;;;;;5096265;28;20016;-46
2022/07/17 01:11:08;;;;;;;5.63;1.75;;;;;;;;;;5095318;28;20161;-46
2022/07/17 01:13:34;;;;;;;10.30;1.52;;;;;;;;;;5094675;28;20030;-46
2022/07/17 01:16:00;;;;;;;5.28;1.55;;;;;;;;;;5096154;28;20519;-47
2022/07/17 01:18:26;;;;;;;2.15;1.13;;;;;;;;;;5096262;28;20510;-47
2022/07/17 01:20:52;;;;;;;9.52;1.80;;;;;;;;;;5096178;28;20051;-46
2022/07/17 01:23:19;;;;;;;5.40;1.35;;;;;;;;;;5095905;28;20103;-45
2022/07/17 01:25:46;;;;;;;2.90;1.00;;;;;;;;;;5095889;28;20062;-47
2022/07/17 01:28:12;;;;;;;4.63;1.80;;;;;;;;;;5096611;28;20407;-48
2022/07/17 01:30:45;;;;;;;3.17;1.13;;;;;;;;;;5096048;28;20466;-46
2022/07/17 01:33:11;;;;;;;1.63;1.52;;;;;;;;;;5095785;28;20024;-47
2022/07/17 01:35:37;;;;;;;4.18;1.40;;;;;;;;;;5095807;28;20085;-45
2022/07/17 01:38:03;;;;;;;8.65;1.40;;;;;;;;;;5095671;28;20024;-45
2022/07/17 01:40:29;;;;;;;5.20;2.78;;;;;;;;;;5096068;28;20035;-46
2022/07/17 01:42:55;;;;;;;3.53;1.17;;;;;;;;;;5096573;28;20031;-46
2022/07/17 01:45:21;;;;;;;2.45;1.60;;;;;;;;;;5095500;28;20031;-46
2022/07/17 01:47:48;;;;;;;4.75;1.20;;;;;;;;;;5095871;28;20035;-45
2022/07/17 01:50:14;;;;;;;5.80;1.65;;;;;;;;;;5095541;28;20097;-46
2022/07/17 01:52:41;;;;;;;2.83;1.40;;;;;;;;;;5095774;28;20024;-45
2022/07/17 01:55:08;;;;;;;3.53;1.60;;;;;;;;;;5095407;28;20050;-47
2022/07/17 01:57:35;;;;;;;5.97;1.35;;;;;;;;;;5095414;28;20028;-50
2022/07/17 02:00:01;;;;;;;7.05;1.30;;;;;;;;;;5095403;28;20020;-49
2022/07/17 02:02:27;;;;;;;4.30;1.30;;;;;;;;;;5093864;28;20476;-46
2022/07/17 02:04:53;;;;;;;7.25;1.60;;;;;;;;;;5095090;28;20443;-45
2022/07/17 02:07:19;;;;;;;3.65;1.38;;;;;;;;;;5095173;28;20089;-46
2022/07/17 02:09:45;;;;;;;6.95;1.25;;;;;;;;;;5095069;28;20030;-46
2022/07/17 02:12:14;;;;;;;3.67;1.15;;;;;;;;;;5095136;28;20027;-46
2022/07/17 02:14:40;;;;;;;3.35;1.08;;;;;;;;;;5095390;28;20464;-47
2022/07/17 02:17:06;;;;;;;5.68;1.30;;;;;;;;;;5095292;28;20076;-46
2022/07/17 02:19:32;;;;;;;5.25;1.30;;;;;;;;;;5095021;28;20031;-46
2022/07/17 02:21:58;;;;;;;1.40;1.20;;;;;;;;;;5094993;28;20502;-48
2022/07/17 02:24:24;;;;;;;7.32;1.27;;;;;;;;;;5094787;28;20028;-47
2022/07/17 02:26:50;;;;;;;8.02;1.98;;;;;;;;;;5094796;28;20021;-47
2022/07/17 02:29:17;;;;;;;7.72;2.17;;;;;;;;;;5094719;28;20046;-47
2022/07/17 02:31:42;;;;;;;6.03;1.20;;;;;;;;;;5094891;28;20038;-45
2022/07/17 02:34:09;;;;;;;7.78;1.25;;;;;;;;;;5094780;28;20111;-46
2022/07/17 02:36:35;;;;;;;4.47;1.33;;;;;;;;;;5093376;28;20107;-48
2022/07/17 02:39:01;;;;;;;3.85;1.30;;;;;;;;;;5096499;28;20117;-47
2022/07/17 02:41:27;;;;;;;6.95;2.15;;;;;;;;;;5096875;28;20028;-47
2022/07/17 02:43:53;;;;;;;11.40;1.40;;;;;;;;;;5096428;28;20472;-46
2022/07/17 02:46:19;;;;;;;2.38;1.17;;;;;;;;;;5094840;28;20464;-48
2022/07/17 02:48:45;;;;;;;8.43;1.88;;;;;;;;;;5094572;28;20405;-46
2022/07/17 02:51:11;;;;;;;6.95;1.42;;;;;;;;;;5093056;28;20082;-45
2022/07/17 02:53:37;;;;;;;3.10;1.90;;;;;;;;;;5094370;28;20042;-47
2022/07/17 02:56:04;;;;;;;7.00;1.50;;;;;;;;;;5094161;28;20114;-46
2022/07/17 02:58:30;;;;;;;5.70;1.52;;;;;;;;;;5094454;28;20039;-46
2022/07/17 03:00:56;;;;;;;6.88;2.38;;;;;;;;;;5094612;28;20094;-45
2022/07/17 03:03:22;;;;;;;6.43;1.23;;;;;;;;;;5094012;28;20027;-46
2022/07/17 03:05:48;;;;;;;4.05;1.50;;;;;;;;;;5093811;28;20044;-47
2022/07/17 03:08:17;;;;;;;3.67;1.30;;;;;;;;;;5094305;28;20065;-46
2022/07/17 03:10:43;;;;;;;4.57;2.35;;;;;;;;;;5092753;28;20020;-45
2022/07/17 03:13:09;;;;;;;6.07;1.70;;;;;;;;;;5092462;28;20021;-45
2022/07/17 20:04:18;;;;;;;3.05;1.55;;;;;;;;;;5070797;28;20942;-47
2022/07/17 20:06:44;;;;;;;3.55;1.65;;;;;;;;;;5070731;28;20052;-47
2022/07/17 20:09:12;;;;;;;5.43;1.60;;;;;;;;;;5070620;28;20048;-46
2022/07/17 20:11:38;;;;;;;7.82;1.40;;;;;;;;;;5070737;28;20578;-45
2022/07/17 20:14:04;;;;;;;4.70;1.70;;;;;;;;;;5070520;28;20413;-51
2022/07/17 20:16:30;;;;;;;4.20;1.65;;;;;;;;;;5070101;28;20032;-46
2022/07/17 20:18:56;;;;;;;3.45;1.58;;;;;;;;;;5071958;28;20104;-50
2022/07/17 20:21:23;;;;;;;8.10;2.90;;;;;;;;;;5070676;28;20056;-49
2022/07/17 20:23:49;;;;;;;5.28;1.80;;;;;;;;;;5070036;28;20059;-45
2022/07/17 20:26:15;;;;;;;5.00;1.55;;;;;;;;;;5070503;28;20020;-47
2022/07/17 20:28:41;;;;;;;3.13;1.50;;;;;;;;;;5070560;28;20027;-48
2022/07/17 20:31:07;;;;;;;4.43;2.28;;;;;;;;;;5070475;28;20021;-49
2022/07/17 20:33:34;;;;;;;7.85;2.35;;;;;;;;;;5068889;28;20033;-47
2022/07/17 20:36:00;;;;;;;5.38;2.17;;;;;;;;;;5068851;28;20028;-45
2022/07/17 20:38:26;;;;;;;5.78;2.28;;;;;;;;;;5069884;28;20031;-50
2022/07/17 20:40:52;;;;;;;4.43;1.98;;;;;;;;;;5069862;28;20025;-47
2022/07/17 20:43:18;;;;;;;3.83;1.83;;;;;;;;;;5052130;28;20032;-47
2022/07/17 20:45:45;;;;;;;6.63;1.98;;;;;;;;;;5069994;28;20025;-49
2022/07/17 20:48:14;;;;;;;3.72;2.65;;;;;;;;;;5068723;28;20021;-49
2022/07/17 20:50:40;;;;;;;10.20;3.30;;;;;;;;;;5072244;28;20067;-47
2022/07/17 20:53:06;;;;;;;5.68;2.67;;;;;;;;;;5069951;28;20029;-47
2022/07/17 20:55:36;;;;;;;4.72;1.70;;;;;;;;;;5070768;28;20033;-50
2022/07/17 20:58:02;;;;;;;3.27;1.73;;;;;;;;;;5069805;28;20020;-49
2022/07/17 21:00:28;;;;;;;6.78;2.45;;;;;;;;;;5069743;28;20491;-48
2022/07/17 21:02:53;;;;;;;4.57;1.55;;;;;;;;;;5067750;28;20038;-49
2022/07/17 21:05:19;;;;;;;4.38;1.90;;;;;;;;;;5069649;28;20020;-48
2022/07/17 21:07:46;;;;;;;4.05;1.92;;;;;;;;;;5069256;28;20052;-48
2022/07/17 21:10:13;;;;;;;4.82;1.88;;;;;;;;;;5069882;28;20334;-47
2022/07/17 21:12:39;;;;;;;4.07;2.00;;;;;;;;;;5067656;28;20029;-47
2022/07/17 21:15:05;;;;;;;4.88;2.05;;;;;;;;;;5058969;28;20056;-46
2022/07/17 21:17:31;;;;;;;3.17;2.40;;;;;;;;;;5056047;28;20052;-48
2022/07/17 21:19:57;;;;;;;5.63;2.00;;;;;;;;;;5055833;28;20029;-48
2022/07/17 21:22:23;;;;;;;4.53;2.08;;;;;;;;;;5055956;28;20055;-46
2022/07/17 21:24:50;;;;;;;4.55;1.60;;;;;;;;;;5055611;28;20025;-47
2022/07/17 21:27:16;;;;;;;7.82;1.98;;;;;;;;;;5055745;28;20028;-47
2022/07/17 21:29:42;;;;;;;7.05;2.63;;;;;;;;;;5055601;28;20028;-47
2022/07/17 21:32:08;;;;;;;6.78;2.08;;;;;;;;;;5055683;28;20025;-46
2022/07/17 21:34:34;;;;;;;4.93;1.90;;;;;;;;;;5055537;28;20036;-46
2022/07/17 21:37:00;;;;;;;3.42;1.60;;;;;;;;;;5055882;28;20156;-47
2022/07/17 21:39:26;;;;;;;5.32;2.05;;;;;;;;;;5055564;28;20133;-47
2022/07/17 21:41:52;;;;;;;4.47;2.45;;;;;;;;;;5055317;28;20104;-48
2022/07/17 21:44:18;;;;;;;9.82;3.45;;;;;;;;;;5055387;28;20100;-48
2022/07/17 21:46:44;;;;;;;9.60;3.45;;;;;;;;;;5054132;28;20124;-47
2022/07/17 21:49:10;;;;;;;6.38;2.80;;;;;;;;;;5055395;28;20449;-47
2022/07/17 21:51:36;;;;;;;12.05;3.25;;;;;;;;;;5055596;28;20111;-47
2022/07/17 21:54:02;;;;;;;12.55;3.55;;;;;;;;;;5055606;28;20028;-48
2022/07/17 21:56:28;;;;;;;17.67;8.95;;;;;;;;;;5055263;28;20074;-49
2022/07/17 21:58:54;;;;;;;17.00;8.35;;;;;;;;;;5053908;28;20366;-47
2022/07/17 22:01:20;;;;;;;16.98;5.15;;;;;;;;;;5053905;28;20032;-46
2022/07/17 22:03:46;;;;;;;11.00;5.70;;;;;;;;;;5054823;28;20041;-46
2022/07/17 22:06:12;;;;;;;15.95;6.15;;;;;;;;;;5055273;28;20021;-47
2022/07/17 22:08:38;;;;;;;9.23;4.15;;;;;;;;;;5054874;28;20025;-49
2022/07/17 22:11:04;;;;;;;9.50;3.90;;;;;;;;;;5055341;28;20025;-47
2022/07/17 22:13:30;;;;;;;6.88;4.15;;;;;;;;;;5054875;28;20503;-46
2022/07/17 22:15:57;;;;;;;5.47;2.58;;;;;;;;;;5054804;28;20062;-47
2022/07/17 22:18:23;;;;;;;4.07;2.20;;;;;;;;;;5055301;28;20059;-47
2022/07/17 22:20:49;;;;;;;5.97;3.20;;;;;;;;;;5054980;28;20104;-47
2022/07/17 22:23:15;;;;;;;2.90;2.30;;;;;;;;;;5054859;28;20029;-46
2022/07/17 22:25:41;;;;;;;4.80;2.67;;;;;;;;;;5053829;28;20053;-46
2022/07/17 22:28:07;;;;;;;4.95;2.47;;;;;;;;;;5053033;28;20032;-47
2022/07/17 22:30:33;;;;;;;4.18;2.30;;;;;;;;;;5053092;28;20430;-46
2022/07/17 22:33:00;;;;;;;7.47;3.05;;;;;;;;;;5054624;28;20071;-46
2022/07/17 22:35:26;;;;;;;5.32;2.72;;;;;;;;;;5054571;28;20091;-47
2022/07/17 22:37:52;;;;;;;6.13;2.40;;;;;;;;;;5054542;28;20530;-47
2022/07/17 22:40:18;;;;;;;3.90;2.42;;;;;;;;;;5054679;28;20135;-46
2022/07/17 22:42:44;;;;;;;3.85;1.63;;;;;;;;;;5054313;28;20135;-46
2022/07/17 22:45:10;;;;;;;3.22;1.70;;;;;;;;;;5054104;28;20025;-46
2022/07/17 22:47:36;;;;;;;5.90;2.03;;;;;;;;;;5052883;28;20078;-48
2022/07/17 22:50:02;;;;;;;3.95;2.13;;;;;;;;;;5054744;28;20030;-46
2022/07/17 22:52:28;;;;;;;5.20;2.17;;;;;;;;;;5054666;28;20032;-47
2022/07/17 22:54:54;;;;;;;5.57;2.17;;;;;;;;;;5053069;28;20366;-47
2022/07/17 22:57:21;;;;;;;2.08;1.50;;;;;;;;;;5053980;28;20059;-47
2022/07/17 22:59:47;;;;;;;4.72;1.70;;;;;;;;;;5054433;28;20063;-47
2022/07/17 23:02:13;;;;;;;3.00;1.70;;;;;;;;;;5054565;28;20052;-39
2022/07/17 23:04:39;;;;;;;3.85;1.70;;;;;;;;;;5054685;28;20174;-39
2022/07/17 23:07:05;;;;;;;2.20;1.75;;;;;;;;;;5052663;28;20100;-38
2022/07/17 23:09:31;;;;;;;4.43;2.33;;;;;;;;;;5054173;28;20120;-40
2022/07/17 23:11:58;;;;;;;5.07;2.55;;;;;;;;;;5054228;28;20052;-39
2022/07/17 23:14:24;;;;;;;7.82;2.13;;;;;;;;;;5054001;28;20470;-38
2022/07/17 23:16:50;;;;;;;2.08;1.40;;;;;;;;;;5052494;28;20409;-39
2022/07/17 23:19:16;;;;;;;4.30;1.77;;;;;;;;;;5052368;28;20028;-39
2022/07/17 23:21:42;;;;;;;4.35;1.58;;;;;;;;;;5053839;28;20021;-39
2022/07/17 23:24:08;;;;;;;7.15;1.92;;;;;;;;;;5036065;28;20029;-40
2022/07/17 23:26:34;;;;;;;6.25;1.70;;;;;;;;;;5054157;28;20025;-38
2022/07/17 23:29:00;;;;;;;3.63;1.80;;;;;;;;;;5053928;28;20121;-38
2022/07/17 23:31:26;;;;;;;13.85;2.55;;;;;;;;;;5054614;28;20457;-38
2022/07/17 23:33:52;;;;;;;8.07;2.47;;;;;;;;;;5053592;28;20025;-39
2022/07/17 23:36:19;;;;;;;5.88;2.00;;;;;;;;;;5053279;28;20521;-38
2022/07/17 23:38:45;;;;;;;4.78;1.70;;;;;;;;;;5054002;28;20025;-38
2022/07/17 23:41:11;;;;;;;3.13;1.73;;;;;;;;;;5053711;28;20029;-38
2022/07/17 23:43:37;;;;;;;4.03;1.92;;;;;;;;;;5053508;28;20099;-38
2022/07/17 23:46:03;;;;;;;6.75;2.35;;;;;;;;;;5053734;28;20027;-39
2022/07/17 23:48:29;;;;;;;3.30;1.42;;;;;;;;;;5054201;28;20579;-39
2022/07/17 23:50:55;;;;;;;4.65;2.65;;;;;;;;;;5053326;28;20059;-38
2022/07/17 23:53:21;;;;;;;5.95;2.80;;;;;;;;;;5052151;28;20047;-38
2022/07/17 23:55:48;;;;;;;4.47;2.10;;;;;;;;;;5052317;28;20033;-39
2022/07/17 23:58:14;;;;;;;6.88;1.73;;;;;;;;;;5052656;28;20028;-39
